createdAt,value
2023-01-21T00:03:44.704Z,34.40
2023-01-21T00:07:27.742Z,36.33
2023-01-21T00:11:14.383Z,37.57
2023-01-21T00:14:57.225Z,37.43
2023-01-21T00:18:41.495Z,43.77
2023-01-21T00:22:24.224Z,41.17
2023-01-21T00:26:08.725Z,40.50
2023-01-21T00:29:54.174Z,36.77
2023-01-21T00:33:37.878Z,37.57
2023-01-21T00:37:21.882Z,38.77
2023-01-21T00:41:06.133Z,38.37
2023-01-21T00:44:49.991Z,36.10
2023-01-21T00:48:32.964Z,36.60
2023-01-21T00:52:15.761Z,31.70
2023-01-21T00:56:01.706Z,38.37
2023-01-21T00:59:44.607Z,34.90
2023-01-21T01:03:27.388Z,32.47
2023-01-21T01:07:10.173Z,28.17
2023-01-21T01:10:55.040Z,36.27
2023-01-21T01:14:39.119Z,31.50
2023-01-21T01:18:22.045Z,33.13
2023-01-21T01:22:04.790Z,32.43
2023-01-21T01:25:55.675Z,32.90
2023-01-21T01:29:39.714Z,34.13
2023-01-21T01:33:22.939Z,34.90
2023-01-21T01:37:05.782Z,37.20
2023-01-21T01:40:49.163Z,30.43
2023-01-21T01:45:01.209Z,32.77
2023-01-21T01:48:47.210Z,30.83
2023-01-21T01:52:30.249Z,32.47
2023-01-21T01:56:13.388Z,31.87
2023-01-21T01:59:58.268Z,31.80
2023-01-21T02:03:50.809Z,34.37
2023-01-21T02:07:39.242Z,33.33
2023-01-21T02:11:21.928Z,29.67
2023-01-21T02:15:06.862Z,36.87
2023-01-21T02:18:53.987Z,36.47
2023-01-21T02:22:39.168Z,34.73
2023-01-21T02:26:56.581Z,36.97
2023-01-21T02:31:04.024Z,33.90
2023-01-21T02:34:49.959Z,36.03
2023-01-21T02:38:37.633Z,37.13
2023-01-21T02:42:24.769Z,34.90
2023-01-21T02:46:10.788Z,34.30
2023-01-21T02:49:58.460Z,33.50
2023-01-21T02:53:41.203Z,33.67
2023-01-21T02:57:37.212Z,37.73
2023-01-21T03:01:28.262Z,34.57
2023-01-21T03:05:18.000Z,36.67
2023-01-21T03:09:04.847Z,33.20
2023-01-21T03:12:52.295Z,32.70
2023-01-21T03:16:54.482Z,36.07
2023-01-21T03:20:41.743Z,32.53
2023-01-21T03:24:24.477Z,30.47
2023-01-21T03:28:09.811Z,35.27
2023-01-21T03:31:56.916Z,34.03
2023-01-21T03:35:43.340Z,34.97
2023-01-21T03:39:31.488Z,33.77
2023-01-21T03:43:14.186Z,37.47
2023-01-21T03:47:01.419Z,32.20
2023-01-21T03:50:50.301Z,34.30
2023-01-21T03:54:33.100Z,35.63
2023-01-21T03:58:15.791Z,34.33
2023-01-21T04:02:00.857Z,32.43
2023-01-21T04:05:44.899Z,37.57
2023-01-21T04:09:27.772Z,35.07
2023-01-21T04:13:10.392Z,33.83
2023-01-21T04:16:53.100Z,33.87
2023-01-21T04:20:35.770Z,32.93
2023-01-21T04:24:19.883Z,36.93
2023-01-21T04:28:02.527Z,34.63
2023-01-21T04:31:45.315Z,38.03
2023-01-21T04:35:28.104Z,39.90
2023-01-21T04:39:11.798Z,37.60
2023-01-21T04:42:55.916Z,39.83
2023-01-21T04:46:38.738Z,38.97
2023-01-21T04:50:21.507Z,39.53
2023-01-21T04:54:04.205Z,38.33
2023-01-21T04:57:46.862Z,44.60
2023-01-21T05:01:31.003Z,39.03
2023-01-21T05:05:13.732Z,39.77
2023-01-21T05:08:56.421Z,39.93
2023-01-21T05:12:39.086Z,43.07
2023-01-21T05:16:22.161Z,42.20
2023-01-21T05:20:07.171Z,41.73
2023-01-21T05:23:49.809Z,39.97
2023-01-21T05:27:32.507Z,47.03
2023-01-21T05:31:15.339Z,42.83
2023-01-21T05:34:58.065Z,46.23
2023-01-21T05:38:42.185Z,46.53
2023-01-21T05:42:24.862Z,47.00
2023-01-21T05:46:07.560Z,48.87
2023-01-21T05:49:50.211Z,44.87
2023-01-21T05:53:32.886Z,49.67
2023-01-21T05:57:16.944Z,47.03
2023-01-21T06:01:00.097Z,48.93
2023-01-21T06:04:42.830Z,42.93
2023-01-21T06:08:25.491Z,45.60
2023-01-21T06:12:08.172Z,41.37
2023-01-21T06:15:55.386Z,41.30
2023-01-21T06:19:38.065Z,45.40
2023-01-21T06:23:20.745Z,43.47
2023-01-21T06:27:03.377Z,43.57
2023-01-21T06:30:47.442Z,44.57
2023-01-21T06:34:31.584Z,42.07
2023-01-21T06:38:14.304Z,39.90
2023-01-21T06:41:57.027Z,37.73
2023-01-21T06:45:39.743Z,40.77
2023-01-21T06:49:22.405Z,39.57
2023-01-21T06:53:06.466Z,34.80
2023-01-21T06:56:49.179Z,40.97
2023-01-21T07:00:31.838Z,41.43
2023-01-21T07:04:14.524Z,38.03
2023-01-21T07:07:57.595Z,40.00
2023-01-21T07:11:41.602Z,40.33
2023-01-21T07:15:24.706Z,37.37
2023-01-21T07:19:07.381Z,37.13
2023-01-21T07:22:50.030Z,40.23
2023-01-21T07:26:36.143Z,42.90
2023-01-21T07:30:21.620Z,38.67
2023-01-21T07:34:04.463Z,34.60
2023-01-21T07:37:47.123Z,39.53
2023-01-21T07:41:30.267Z,44.90
2023-01-21T07:45:12.894Z,31.70
2023-01-21T07:48:56.960Z,38.70
2023-01-21T07:52:39.624Z,38.77
2023-01-21T07:56:22.260Z,38.57
2023-01-21T08:00:05.621Z,40.07
2023-01-21T08:03:48.264Z,38.30
2023-01-21T08:07:32.252Z,38.00
2023-01-21T08:11:15.009Z,40.67
2023-01-21T08:14:57.649Z,42.97
2023-01-21T08:18:40.308Z,37.83
2023-01-21T08:22:23.238Z,39.43
2023-01-21T08:26:07.521Z,42.77
2023-01-21T08:29:50.155Z,37.73
2023-01-21T08:33:33.124Z,44.27
2023-01-21T08:37:15.783Z,42.60
2023-01-21T08:40:58.970Z,41.67
2023-01-21T08:44:43.503Z,43.30
2023-01-21T08:48:26.306Z,47.60
2023-01-21T08:52:08.951Z,41.17
2023-01-21T08:55:51.677Z,43.17
2023-01-21T08:59:34.410Z,42.03
2023-01-21T09:03:21.304Z,43.87
2023-01-21T09:07:04.214Z,44.03
2023-01-21T09:11:02.180Z,42.00
2023-01-21T09:14:44.995Z,45.70
2023-01-21T09:18:29.076Z,38.87
2023-01-21T09:22:11.774Z,40.27
2023-01-21T09:25:55.233Z,43.23
2023-01-21T09:29:37.976Z,43.07
2023-01-21T09:33:20.620Z,46.37
2023-01-21T09:37:05.109Z,41.13
2023-01-21T09:40:47.941Z,39.50
2023-01-21T09:44:32.564Z,41.37
2023-01-21T09:48:17.638Z,44.97
2023-01-21T09:52:07.089Z,43.27
2023-01-21T09:55:50.709Z,40.27
2023-01-21T09:59:44.122Z,47.33
2023-01-21T10:03:30.957Z,40.77
2023-01-21T10:07:17.090Z,48.17
2023-01-21T10:11:06.591Z,42.53
2023-01-21T10:15:21.715Z,40.63
2023-01-21T10:19:05.723Z,49.93
2023-01-21T10:22:53.201Z,35.07
2023-01-21T10:26:36.932Z,41.13
2023-01-21T10:30:25.948Z,46.33
2023-01-21T10:34:14.025Z,37.37
2023-01-21T10:38:04.348Z,41.30
2023-01-21T10:41:57.070Z,33.83
2023-01-21T10:45:44.164Z,38.70
2023-01-21T10:49:32.527Z,41.53
2023-01-21T10:53:22.204Z,34.83
2023-01-21T10:57:12.571Z,40.63
2023-01-21T11:00:56.319Z,40.23
2023-01-21T11:04:42.120Z,33.87
2023-01-21T11:08:27.631Z,32.87
2023-01-21T11:12:11.196Z,42.30
2023-01-21T11:15:56.286Z,32.37
2023-01-21T11:19:42.658Z,36.50
2023-01-21T11:23:29.245Z,38.03
2023-01-21T11:27:20.315Z,38.57
2023-01-21T11:31:09.448Z,36.43
2023-01-21T11:34:55.379Z,35.43
2023-01-21T11:38:39.515Z,34.40
2023-01-21T11:42:22.441Z,31.57
2023-01-21T11:46:37.489Z,36.07
2023-01-21T11:50:25.308Z,30.17
2023-01-21T11:54:16.102Z,48.10
2023-01-21T11:57:58.890Z,32.63
2023-01-21T12:01:41.611Z,36.90
2023-01-21T12:05:29.839Z,31.97
2023-01-21T12:09:18.456Z,27.10
2023-01-21T12:13:13.862Z,31.07
2023-01-21T12:17:05.479Z,27.20
2023-01-21T12:20:53.106Z,33.97
2023-01-21T12:24:47.373Z,31.90
2023-01-21T12:28:43.788Z,28.37
2023-01-21T12:32:29.310Z,28.30
2023-01-21T12:36:16.997Z,26.80
2023-01-21T12:40:04.402Z,26.13
2023-01-21T12:43:49.462Z,32.47
2023-01-21T12:47:37.132Z,27.60
2023-01-21T12:51:23.628Z,24.67
2023-01-21T12:55:15.226Z,27.17
2023-01-21T12:59:01.557Z,26.27
2023-01-21T13:02:50.682Z,23.57
2023-01-21T13:06:52.798Z,32.13
2023-01-21T13:10:40.797Z,26.33
2023-01-21T13:14:27.925Z,27.17
2023-01-21T13:18:13.163Z,24.37
2023-01-21T13:22:00.366Z,25.77
2023-01-21T13:25:48.407Z,28.63
2023-01-21T13:29:37.919Z,28.27
2023-01-21T13:33:26.745Z,27.50
2023-01-21T13:37:11.895Z,24.23
2023-01-21T13:41:00.139Z,25.37
2023-01-21T13:44:56.022Z,23.53
2023-01-21T13:49:05.356Z,24.80
2023-01-21T13:53:05.413Z,22.30
2023-01-21T13:57:08.932Z,25.47
2023-01-21T14:00:57.868Z,27.63
2023-01-21T14:04:43.434Z,28.47
2023-01-21T14:08:29.669Z,24.77
2023-01-21T14:12:18.199Z,26.53
2023-01-21T14:16:12.193Z,23.83
2023-01-21T14:20:39.699Z,26.60
2023-01-21T14:24:36.622Z,27.93
2023-01-21T14:28:26.336Z,34.50
2023-01-21T14:32:14.015Z,26.10
2023-01-21T14:36:04.899Z,25.80
2023-01-21T14:39:54.426Z,29.73
2023-01-21T14:43:56.177Z,34.10
2023-01-21T14:47:44.415Z,26.33
2023-01-21T14:51:28.822Z,24.30
2023-01-21T14:55:27.676Z,25.90
2023-01-21T14:59:28.507Z,33.27
2023-01-21T15:03:16.219Z,24.70
2023-01-21T15:07:00.496Z,26.57
2023-01-21T15:10:43.286Z,28.63
2023-01-21T15:14:29.114Z,31.30
2023-01-21T15:18:27.038Z,28.57
2023-01-21T15:22:23.682Z,24.67
2023-01-21T15:26:20.887Z,31.23
2023-01-21T15:30:28.128Z,24.53
2023-01-21T15:34:14.902Z,19.83
2023-01-21T15:38:03.013Z,24.80
2023-01-21T15:41:56.947Z,26.60
2023-01-21T15:45:49.510Z,23.97
2023-01-21T15:49:40.487Z,23.67
2023-01-21T15:53:51.394Z,21.90
2023-01-21T15:57:42.187Z,27.77
2023-01-21T16:01:33.095Z,22.13
2023-01-21T16:05:26.469Z,21.07
2023-01-21T16:09:10.484Z,22.10
2023-01-21T16:13:00.186Z,20.40
2023-01-21T16:16:50.435Z,21.67
2023-01-21T16:20:36.238Z,20.70
2023-01-21T16:24:22.081Z,23.47
2023-01-21T16:28:05.007Z,19.17
2023-01-21T16:31:51.250Z,22.77
2023-01-21T16:35:43.656Z,19.57
2023-01-21T16:39:27.093Z,17.33
2023-01-21T16:43:18.924Z,24.23
2023-01-21T16:47:03.255Z,20.37
2023-01-21T16:50:48.562Z,20.30
2023-01-21T16:54:32.503Z,22.97
2023-01-21T16:58:27.033Z,19.10
2023-01-21T17:02:19.734Z,22.37
2023-01-21T17:06:08.175Z,19.77
2023-01-21T17:09:56.476Z,20.40
2023-01-21T17:13:43.590Z,17.20
2023-01-21T17:17:30.403Z,19.63
2023-01-21T17:21:14.505Z,25.97
2023-01-21T17:25:03.051Z,22.07
2023-01-21T17:28:47.221Z,20.67
2023-01-21T17:32:33.289Z,19.03
2023-01-21T17:36:18.608Z,19.13
2023-01-21T17:40:01.766Z,19.20
2023-01-21T17:43:50.291Z,20.33
2023-01-21T17:47:46.402Z,20.67
2023-01-21T17:51:38.615Z,27.70
2023-01-21T17:55:34.521Z,20.30
2023-01-21T17:59:37.517Z,20.33
2023-01-21T18:03:21.529Z,30.37
2023-01-21T18:07:07.955Z,28.33
2023-01-21T18:10:51.634Z,22.00
2023-01-21T18:14:34.336Z,20.37
2023-01-21T18:18:18.331Z,26.33
2023-01-21T18:22:03.577Z,25.17
2023-01-21T18:25:48.661Z,25.77
2023-01-21T18:29:31.759Z,25.20
2023-01-21T18:33:14.664Z,24.47
2023-01-21T18:36:57.772Z,22.27
2023-01-21T18:40:41.791Z,25.67
2023-01-21T18:44:24.477Z,26.37
2023-01-21T18:48:10.491Z,25.57
2023-01-21T18:51:53.256Z,33.77
2023-01-21T18:55:36.076Z,32.03
2023-01-21T18:59:22.334Z,25.77
2023-01-21T19:03:05.047Z,26.00
2023-01-21T19:06:47.736Z,28.80
2023-01-21T19:10:30.449Z,25.43
2023-01-21T19:14:13.100Z,26.37
2023-01-21T19:17:57.526Z,25.20
2023-01-21T19:21:43.130Z,28.93
2023-01-21T19:25:26.670Z,24.20
2023-01-21T19:29:14.857Z,27.90
2023-01-21T19:33:00.654Z,26.70
2023-01-21T19:36:43.384Z,23.93
2023-01-21T19:40:28.321Z,26.13
2023-01-21T19:44:10.993Z,29.80
2023-01-21T19:47:53.746Z,25.47
2023-01-21T19:51:37.931Z,26.70
2023-01-21T19:55:22.211Z,24.43
2023-01-21T19:59:05.596Z,27.57
2023-01-21T20:02:48.409Z,23.73
2023-01-21T20:06:34.791Z,27.63
2023-01-21T20:10:20.867Z,25.97
2023-01-21T20:14:03.809Z,25.97
2023-01-21T20:17:50.551Z,26.77
2023-01-21T20:21:33.550Z,25.77
2023-01-21T20:25:19.594Z,33.27
2023-01-21T20:29:03.706Z,33.33
2023-01-21T20:32:46.956Z,28.90
2023-01-21T20:36:29.705Z,25.80
2023-01-21T20:40:22.768Z,30.07
2023-01-21T20:44:05.661Z,28.90
2023-01-21T20:47:50.597Z,32.87
2023-01-21T20:51:33.439Z,36.23
2023-01-21T20:55:20.678Z,29.10
2023-01-21T20:59:05.362Z,33.10
2023-01-21T21:02:49.003Z,34.73
2023-01-21T21:06:33.458Z,33.77
2023-01-21T21:10:22.038Z,27.87
2023-01-21T21:14:06.126Z,26.77
2023-01-21T21:17:49.222Z,32.37
2023-01-21T21:21:31.889Z,29.13
2023-01-21T21:25:16.304Z,39.40
2023-01-21T21:28:59.286Z,35.50
2023-01-21T21:32:43.415Z,24.37
2023-01-21T21:36:26.211Z,27.63
2023-01-21T21:40:10.522Z,32.77
2023-01-21T21:43:53.161Z,30.10
2023-01-21T21:47:52.608Z,32.00
2023-01-21T21:51:38.014Z,28.10
2023-01-21T21:55:20.899Z,31.50
2023-01-21T21:59:03.941Z,36.87
2023-01-21T22:02:46.665Z,27.70
2023-01-21T22:06:29.949Z,26.60
2023-01-21T22:10:14.311Z,28.93
2023-01-21T22:13:58.105Z,26.63
2023-01-21T22:17:40.796Z,29.63
2023-01-21T22:21:25.587Z,30.07
2023-01-21T22:25:10.795Z,26.80
2023-01-21T22:28:54.961Z,28.47
2023-01-21T22:32:37.729Z,27.80
2023-01-21T22:36:21.935Z,28.93
2023-01-21T22:40:05.428Z,31.37
2023-01-21T22:43:49.088Z,30.20
2023-01-21T22:47:34.864Z,28.07
2023-01-21T22:51:19.670Z,27.83
2023-01-21T22:55:02.555Z,33.03
2023-01-21T22:58:45.694Z,26.17
2023-01-21T23:02:28.425Z,29.67
2023-01-21T23:06:12.626Z,27.87
2023-01-21T23:09:55.448Z,26.90
2023-01-21T23:13:38.185Z,30.47
2023-01-21T23:17:21.013Z,32.20
2023-01-21T23:21:07.170Z,31.90
2023-01-21T23:24:51.228Z,29.03
2023-01-21T23:28:34.732Z,29.57
2023-01-21T23:32:17.541Z,27.23
2023-01-21T23:36:00.942Z,29.37
2023-01-21T23:39:43.742Z,31.37
2023-01-21T23:43:28.292Z,26.40
2023-01-21T23:47:11.117Z,27.97
2023-01-21T23:50:53.820Z,30.83
2023-01-21T23:54:36.537Z,26.20
2023-01-21T23:58:19.205Z,26.83
